createdAt,value
2023-04-24T00:01:08.595Z,1.20
2023-04-24T00:03:36.046Z,1.20
2023-04-24T00:06:03.789Z,1.03
2023-04-24T00:08:30.786Z,1.10
2023-04-24T00:10:58.148Z,1.40
2023-04-24T00:13:24.986Z,0.90
2023-04-24T00:15:51.920Z,1.33
2023-04-24T00:18:18.989Z,1.27
2023-04-24T00:20:46.337Z,1.50
2023-04-24T00:23:13.249Z,1.50
2023-04-24T00:25:41.122Z,3.40
2023-04-24T00:28:08.665Z,4.37
2023-04-24T00:30:36.171Z,1.30
2023-04-24T00:33:03.013Z,1.20
2023-04-24T00:35:29.961Z,3.23
2023-04-24T00:37:56.787Z,1.77
2023-04-24T00:40:24.122Z,1.40
2023-04-24T00:42:51.634Z,1.50
2023-04-24T00:45:18.462Z,1.20
2023-04-24T00:47:45.392Z,1.33
2023-04-24T00:50:14.518Z,1.67
2023-04-24T00:52:41.987Z,1.60
2023-04-24T00:55:09.492Z,1.90
2023-04-24T00:57:36.788Z,1.10
2023-04-24T01:00:04.697Z,1.50
2023-04-24T01:02:32.248Z,1.50
2023-04-24T01:04:59.261Z,1.73
2023-04-24T01:07:26.156Z,1.93
2023-04-24T01:09:53.378Z,1.67
2023-04-24T01:12:20.829Z,1.33
2023-04-24T01:14:47.680Z,1.73
2023-04-24T01:17:14.492Z,1.30
2023-04-24T01:19:41.954Z,1.50
2023-04-24T01:22:12.838Z,0.90
2023-04-24T01:24:39.950Z,1.47
2023-04-24T01:27:06.984Z,1.47
2023-04-24T01:29:34.010Z,1.70
2023-04-24T01:32:01.196Z,1.90
2023-04-24T01:34:28.662Z,1.30
2023-04-24T01:36:57.887Z,1.80
2023-04-24T01:39:26.664Z,1.30
2023-04-24T01:41:53.723Z,1.50
2023-04-24T01:44:20.887Z,1.50
2023-04-24T01:46:48.129Z,1.43
2023-04-24T01:49:14.930Z,1.67
2023-04-24T01:51:41.806Z,1.63
2023-04-24T01:54:08.580Z,1.90
2023-04-24T01:56:38.424Z,1.77
2023-04-24T01:59:05.498Z,1.53
2023-04-24T02:01:39.599Z,2.00
2023-04-24T02:04:07.192Z,1.63
2023-04-24T02:06:34.684Z,1.47
2023-04-24T02:09:02.254Z,1.50
2023-04-24T02:11:29.041Z,1.73
2023-04-24T02:13:55.817Z,1.50
2023-04-24T02:16:22.786Z,1.40
2023-04-24T02:18:49.826Z,1.90
2023-04-24T02:21:16.848Z,1.70
2023-04-24T02:23:43.647Z,3.30
2023-04-24T02:26:11.352Z,1.17
2023-04-24T02:28:38.180Z,1.83
2023-04-24T02:31:05.063Z,1.00
2023-04-24T02:33:32.422Z,1.30
2023-04-24T02:35:59.223Z,1.60
2023-04-24T02:38:26.116Z,1.00
2023-04-24T02:40:53.195Z,1.37
2023-04-24T02:43:20.120Z,1.60
2023-04-24T02:45:47.600Z,1.40
2023-04-24T02:48:14.530Z,1.00
2023-04-24T02:50:41.320Z,1.10
2023-04-24T02:53:08.870Z,1.40
2023-04-24T02:55:35.846Z,1.00
2023-04-24T02:58:02.829Z,1.30
2023-04-24T03:00:30.216Z,1.73
2023-04-24T03:02:58.911Z,1.80
2023-04-24T03:05:26.422Z,1.53
2023-04-24T03:07:55.872Z,1.17
2023-04-24T03:10:25.516Z,1.60
2023-04-24T03:12:52.425Z,2.63
2023-04-24T03:15:19.393Z,1.80
2023-04-24T03:17:46.472Z,2.00
2023-04-24T03:20:13.338Z,2.20
2023-04-24T03:22:40.860Z,2.10
2023-04-24T03:25:10.138Z,1.67
2023-04-24T03:27:37.215Z,1.43
2023-04-24T03:30:04.940Z,1.93
2023-04-24T03:32:33.321Z,1.87
2023-04-24T03:35:00.327Z,2.27
2023-04-24T03:37:27.626Z,1.30
2023-04-24T03:39:58.378Z,1.77
2023-04-24T03:42:25.308Z,1.40
2023-04-24T03:44:52.086Z,1.47
2023-04-24T03:47:18.857Z,1.20
2023-04-24T03:49:45.918Z,1.30
2023-04-24T03:52:12.741Z,0.80
2023-04-24T03:54:40.024Z,0.70
2023-04-24T03:57:06.846Z,0.50
2023-04-24T03:59:34.227Z,0.40
2023-04-24T04:02:01.038Z,0.33
2023-04-24T04:04:28.385Z,0.30
2023-04-24T04:06:55.379Z,0.30
2023-04-24T04:09:22.529Z,0.30
2023-04-24T04:11:49.296Z,0.97
2023-04-24T04:14:16.242Z,0.30
2023-04-24T04:16:43.215Z,0.70
2023-04-24T04:19:10.430Z,0.40
2023-04-24T04:21:37.260Z,0.30
2023-04-24T04:24:06.548Z,0.37
2023-04-24T04:26:33.663Z,0.40
2023-04-24T04:29:04.649Z,0.40
2023-04-24T04:31:31.757Z,0.30
2023-04-24T04:33:58.574Z,0.50
2023-04-24T04:36:25.543Z,0.30
2023-04-24T04:38:52.362Z,0.30
2023-04-24T04:41:19.747Z,0.40
2023-04-24T04:43:47.547Z,0.40
2023-04-24T04:46:17.514Z,0.67
2023-04-24T04:48:47.279Z,0.50
2023-04-24T04:51:14.124Z,0.40
2023-04-24T04:53:40.920Z,0.40
2023-04-24T04:56:08.896Z,0.40
2023-04-24T04:58:35.749Z,0.40
2023-04-24T05:01:03.295Z,0.50
2023-04-24T05:03:30.607Z,0.40
2023-04-24T05:05:58.768Z,0.87
2023-04-24T05:08:27.401Z,0.30
2023-04-24T05:10:55.129Z,0.40
2023-04-24T05:13:31.775Z,0.30
2023-04-24T05:16:05.874Z,0.40
2023-04-24T05:18:32.688Z,0.23
2023-04-24T05:20:59.522Z,0.30
2023-04-24T05:23:26.665Z,0.40
2023-04-24T05:25:53.997Z,0.30
2023-04-24T05:28:21.363Z,0.60
2023-04-24T05:30:48.334Z,0.33
2023-04-24T05:33:16.014Z,0.40
2023-04-24T05:35:52.766Z,0.40
2023-04-24T05:38:20.639Z,0.27
2023-04-24T05:40:47.959Z,0.30
2023-04-24T05:43:15.070Z,0.30
2023-04-24T05:45:41.888Z,0.40
2023-04-24T05:48:08.793Z,0.87
2023-04-24T05:50:37.220Z,0.40
2023-04-24T05:53:08.009Z,0.40
2023-04-24T05:55:34.859Z,0.60
2023-04-24T05:58:01.788Z,0.60
2023-04-24T06:00:29.773Z,0.33
2023-04-24T06:02:57.171Z,0.40
2023-04-24T06:05:24.350Z,0.50
2023-04-24T06:07:52.454Z,0.40
2023-04-24T06:10:19.243Z,0.40
2023-04-24T06:12:46.083Z,0.37
2023-04-24T06:15:14.072Z,0.50
2023-04-24T06:17:40.890Z,0.40
2023-04-24T06:20:09.149Z,0.90
2023-04-24T06:22:36.560Z,1.00
2023-04-24T06:25:03.791Z,0.50
2023-04-24T06:27:30.676Z,0.40
2023-04-24T06:29:58.086Z,0.93
2023-04-24T06:32:27.042Z,0.53
2023-04-24T06:34:54.071Z,0.60
2023-04-24T06:37:23.900Z,0.60
2023-04-24T06:39:50.806Z,0.60
2023-04-24T06:42:17.659Z,0.47
2023-04-24T06:44:45.560Z,0.50
2023-04-24T06:47:14.667Z,0.60
2023-04-24T06:49:41.744Z,1.63
2023-04-24T06:52:09.062Z,0.43
2023-04-24T06:54:35.854Z,0.30
2023-04-24T06:57:04.764Z,0.47
2023-04-24T06:59:31.734Z,0.50
2023-04-24T07:01:58.820Z,0.40
2023-04-24T07:04:26.785Z,0.80
2023-04-24T07:06:56.841Z,0.43
2023-04-24T07:09:24.788Z,0.50
2023-04-24T07:11:52.676Z,0.53
2023-04-24T07:14:19.553Z,0.50
2023-04-24T07:16:46.432Z,0.80
2023-04-24T07:19:14.170Z,0.63
2023-04-24T07:21:41.124Z,0.50
2023-04-24T07:24:11.978Z,0.53
2023-04-24T07:26:39.763Z,0.53
2023-04-24T07:29:06.732Z,1.07
2023-04-24T07:31:33.926Z,0.80
2023-04-24T07:34:02.093Z,0.70
2023-04-24T07:36:29.127Z,0.60
2023-04-24T07:38:57.517Z,0.90
2023-04-24T07:41:25.401Z,0.40
2023-04-24T07:43:53.557Z,0.60
2023-04-24T07:46:21.313Z,0.73
2023-04-24T07:48:58.658Z,0.90
2023-04-24T07:51:33.688Z,0.40
2023-04-24T07:54:00.618Z,0.50
2023-04-24T07:56:28.063Z,0.30
2023-04-24T07:58:55.049Z,0.70
2023-04-24T08:01:21.985Z,0.30
2023-04-24T08:03:49.286Z,0.40
2023-04-24T08:06:16.255Z,0.20
2023-04-24T08:08:43.154Z,0.60
2023-04-24T08:11:09.985Z,0.30
2023-04-24T08:13:36.836Z,0.30
2023-04-24T08:16:05.725Z,0.30
2023-04-24T08:18:32.848Z,0.30
2023-04-24T08:21:02.515Z,0.20
2023-04-24T08:23:30.858Z,0.30
2023-04-24T08:25:58.326Z,0.30
2023-04-24T08:28:25.689Z,0.33
2023-04-24T08:30:55.719Z,0.40
2023-04-24T08:33:25.646Z,0.30
2023-04-24T08:35:53.630Z,0.30
2023-04-24T08:38:20.478Z,0.80
2023-04-24T08:40:50.612Z,0.30
2023-04-24T08:43:17.521Z,0.40
2023-04-24T08:45:44.702Z,0.30
2023-04-24T08:48:23.467Z,0.30
2023-04-24T08:50:57.806Z,0.60
2023-04-24T08:53:24.641Z,0.97
2023-04-24T08:55:52.749Z,0.27
2023-04-24T08:58:19.730Z,0.30
2023-04-24T09:00:48.701Z,0.30
2023-04-24T09:03:17.349Z,0.47
2023-04-24T09:05:48.515Z,0.30
2023-04-24T09:08:15.690Z,0.30
2023-04-24T09:10:43.223Z,0.50
2023-04-24T09:13:11.181Z,0.40
2023-04-24T09:15:38.955Z,0.40
2023-04-24T09:18:06.242Z,0.40
2023-04-24T09:20:33.719Z,0.60
2023-04-24T09:23:00.543Z,0.37
2023-04-24T09:25:33.257Z,0.60
2023-04-24T09:28:04.008Z,0.40
2023-04-24T09:30:31.131Z,0.40
2023-04-24T09:33:16.791Z,0.30
2023-04-24T09:35:52.026Z,0.60
2023-04-24T09:38:18.921Z,0.50
2023-04-24T09:40:45.854Z,0.93
2023-04-24T09:43:12.630Z,0.30
2023-04-24T09:45:40.935Z,0.43
2023-04-24T09:48:11.732Z,0.30
2023-04-24T09:50:38.899Z,0.37
2023-04-24T09:53:09.557Z,0.30
2023-04-24T09:55:43.109Z,0.37
2023-04-24T09:58:10.453Z,0.40
2023-04-24T10:00:37.398Z,0.30
2023-04-24T10:03:05.348Z,0.40
2023-04-24T10:05:36.946Z,0.20
2023-04-24T10:08:08.272Z,0.30
2023-04-24T10:10:39.663Z,0.40
2023-04-24T10:13:08.529Z,0.40
2023-04-24T10:15:36.305Z,0.30
2023-04-24T10:18:03.269Z,0.20
2023-04-24T10:20:31.775Z,0.70
2023-04-24T10:22:59.533Z,0.30
2023-04-24T10:25:28.458Z,0.30
2023-04-24T10:28:00.569Z,0.40
2023-04-24T10:30:37.370Z,0.30
2023-04-24T10:33:08.841Z,0.40
2023-04-24T10:35:38.297Z,1.50
2023-04-24T10:38:11.739Z,0.40
2023-04-24T10:40:38.772Z,0.30
2023-04-24T10:43:11.497Z,0.40
2023-04-24T10:45:39.318Z,0.30
2023-04-24T10:48:11.816Z,0.30
2023-04-24T10:51:12.063Z,0.30
2023-04-24T10:53:38.861Z,0.23
2023-04-24T10:56:11.298Z,0.30
2023-04-24T10:58:41.208Z,0.50
2023-04-24T11:01:08.351Z,0.30
2023-04-24T11:03:36.546Z,0.93
2023-04-24T11:06:07.828Z,0.50
2023-04-24T11:08:48.026Z,0.30
2023-04-24T11:11:18.748Z,0.30
2023-04-24T11:13:57.763Z,0.70
2023-04-24T11:16:24.808Z,0.47
2023-04-24T11:18:55.301Z,0.43
2023-04-24T11:21:23.337Z,0.30
2023-04-24T11:23:50.258Z,0.33
2023-04-24T11:26:22.205Z,0.40
2023-04-24T11:28:49.439Z,0.30
2023-04-24T11:31:37.345Z,0.30
2023-04-24T11:34:12.221Z,0.30
2023-04-24T11:36:41.714Z,0.30
2023-04-24T11:39:08.601Z,0.30
2023-04-24T11:41:36.275Z,0.30
2023-04-24T11:44:04.083Z,0.77
2023-04-24T11:46:32.466Z,0.40
2023-04-24T11:49:01.381Z,1.73
2023-04-24T11:51:31.318Z,0.37
2023-04-24T11:54:08.526Z,0.30
2023-04-24T11:56:35.465Z,1.07
2023-04-24T11:59:02.195Z,0.20
2023-04-24T12:01:29.523Z,0.30
2023-04-24T12:04:01.349Z,0.20
2023-04-24T12:06:28.904Z,0.30
2023-04-24T12:09:04.796Z,0.30
2023-04-24T12:11:38.422Z,0.20
2023-04-24T12:14:14.639Z,0.30
2023-04-24T12:16:41.925Z,0.20
2023-04-24T12:19:09.339Z,0.30
2023-04-24T12:21:36.072Z,0.50
2023-04-24T12:24:03.148Z,0.30
2023-04-24T12:26:30.162Z,0.30
2023-04-24T12:28:56.942Z,0.30
2023-04-24T12:31:24.771Z,0.30
2023-04-24T12:33:53.500Z,0.20
2023-04-24T12:36:22.214Z,0.20
2023-04-24T12:38:53.446Z,0.30
2023-04-24T12:41:20.566Z,0.50
2023-04-24T12:43:54.724Z,0.23
2023-04-24T12:46:22.766Z,0.40
2023-04-24T12:48:49.752Z,0.30
2023-04-24T12:51:17.044Z,0.40
2023-04-24T12:53:44.065Z,0.63
2023-04-24T12:56:11.134Z,0.20
2023-04-24T12:58:37.966Z,0.40
2023-04-24T13:01:04.952Z,0.33
2023-04-24T13:03:31.877Z,0.30
2023-04-24T13:05:58.738Z,0.30
2023-04-24T13:08:25.550Z,0.30
2023-04-24T13:10:53.069Z,0.30
2023-04-24T13:13:20.439Z,0.40
2023-04-24T13:15:47.323Z,0.30
2023-04-24T13:18:14.773Z,0.40
2023-04-24T13:20:43.025Z,0.80
2023-04-24T13:23:09.793Z,0.70
2023-04-24T13:25:37.381Z,0.50
2023-04-24T13:28:04.163Z,0.30
2023-04-24T13:30:31.009Z,0.30
2023-04-24T13:33:00.498Z,0.30
2023-04-24T13:35:27.503Z,1.90
2023-04-24T13:37:54.588Z,0.27
2023-04-24T13:40:21.406Z,0.30
2023-04-24T13:42:51.685Z,0.30
2023-04-24T13:45:25.067Z,0.33
2023-04-24T13:47:55.263Z,0.30
2023-04-24T13:50:22.436Z,0.33
2023-04-24T13:52:52.102Z,0.30
2023-04-24T13:55:19.333Z,0.27
2023-04-24T13:57:48.423Z,0.60
2023-04-24T14:00:22.204Z,0.40
2023-04-24T14:02:51.725Z,0.20
2023-04-24T14:05:19.941Z,0.20
2023-04-24T14:07:49.118Z,0.40
2023-04-24T14:10:18.798Z,0.20
2023-04-24T14:12:45.613Z,0.30
2023-04-24T14:15:14.602Z,0.30
2023-04-24T14:17:43.218Z,0.70
2023-04-24T14:20:10.409Z,0.97
2023-04-24T14:22:37.818Z,0.53
2023-04-24T14:25:06.265Z,0.30
2023-04-24T14:27:33.253Z,0.33
2023-04-24T14:30:00.351Z,0.30
2023-04-24T14:32:29.888Z,0.30
2023-04-24T14:34:56.683Z,0.50
2023-04-24T14:37:23.577Z,0.33
2023-04-24T14:40:06.232Z,0.33
2023-04-24T14:42:37.440Z,0.70
2023-04-24T14:45:04.580Z,0.60
2023-04-24T14:47:31.375Z,0.60
2023-04-24T14:49:58.278Z,1.67
2023-04-24T14:52:25.171Z,2.70
2023-04-24T14:54:55.759Z,1.70
2023-04-24T14:57:22.691Z,0.67
2023-04-24T14:59:49.660Z,0.70
2023-04-24T15:02:18.041Z,0.80
2023-04-24T15:04:46.039Z,0.60
2023-04-24T15:07:12.910Z,0.63
2023-04-24T15:09:39.864Z,0.37
2023-04-24T15:12:06.934Z,0.57
2023-04-24T15:14:33.702Z,0.53
2023-04-24T15:17:00.813Z,1.03
2023-04-24T15:19:28.021Z,0.40
2023-04-24T15:21:54.787Z,0.60
2023-04-24T15:24:21.553Z,0.40
2023-04-24T15:26:48.996Z,0.50
2023-04-24T15:29:15.814Z,0.40
2023-04-24T15:31:42.693Z,0.40
2023-04-24T15:34:10.250Z,0.60
2023-04-24T15:36:37.133Z,0.40
2023-04-24T15:39:05.660Z,0.73
2023-04-24T15:41:33.894Z,0.43
2023-04-24T15:44:01.415Z,0.40
2023-04-24T15:46:28.784Z,0.40
2023-04-24T15:48:55.811Z,0.40
2023-04-24T15:51:22.605Z,0.40
2023-04-24T15:53:50.044Z,1.17
2023-04-24T15:56:18.996Z,0.60
2023-04-24T15:58:47.005Z,1.10
2023-04-24T16:01:14.093Z,1.00
2023-04-24T16:03:41.452Z,0.60
2023-04-24T16:06:08.881Z,0.50
2023-04-24T16:08:38.216Z,0.50
2023-04-24T16:11:06.050Z,0.50
2023-04-24T16:13:35.639Z,0.67
2023-04-24T16:16:02.892Z,1.33
2023-04-24T16:18:30.249Z,1.40
2023-04-24T16:20:58.401Z,0.90
2023-04-24T16:23:25.195Z,1.07
2023-04-24T16:25:52.051Z,0.80
2023-04-24T16:28:19.507Z,0.80
2023-04-24T16:30:46.320Z,1.33
2023-04-24T16:33:13.207Z,1.33
2023-04-24T16:35:41.226Z,1.80
2023-04-24T16:38:08.030Z,2.10
2023-04-24T16:40:35.524Z,1.27
2023-04-24T16:43:02.293Z,1.57
2023-04-24T16:45:29.428Z,1.80
2023-04-24T16:47:56.755Z,1.40
2023-04-24T16:50:23.686Z,0.83
2023-04-24T16:52:50.543Z,1.30
2023-04-24T16:55:18.197Z,0.80
2023-04-24T16:57:44.955Z,0.90
2023-04-24T17:00:12.713Z,0.70
2023-04-24T17:02:42.091Z,0.70
2023-04-24T17:05:09.013Z,1.23
2023-04-24T17:07:36.165Z,1.83
2023-04-24T17:10:04.308Z,1.60
2023-04-24T17:12:31.844Z,1.40
2023-04-24T17:14:58.601Z,1.50
2023-04-24T17:17:25.569Z,1.33
2023-04-24T17:19:52.958Z,1.40
2023-04-24T17:22:19.801Z,1.50
2023-04-24T17:24:46.828Z,1.13
2023-04-24T17:27:15.704Z,1.20
2023-04-24T17:29:42.649Z,0.80
2023-04-24T17:32:09.714Z,0.80
2023-04-24T17:34:53.674Z,1.30
2023-04-24T17:37:23.399Z,1.70
2023-04-24T17:39:50.760Z,2.10
2023-04-24T17:42:17.762Z,2.40
2023-04-24T17:44:44.747Z,1.40
2023-04-24T17:47:26.152Z,1.70
2023-04-24T17:49:53.637Z,3.23
2023-04-24T17:52:20.741Z,3.27
2023-04-24T17:54:49.718Z,3.00
2023-04-24T17:57:17.066Z,2.90
2023-04-24T17:59:46.907Z,1.97
2023-04-24T18:02:14.634Z,1.67
2023-04-24T18:04:43.106Z,1.60
2023-04-24T18:07:13.573Z,1.20
2023-04-24T18:09:41.547Z,1.00
2023-04-24T18:12:10.983Z,0.80
2023-04-24T18:14:37.740Z,0.80
2023-04-24T18:17:05.266Z,0.50
2023-04-24T18:19:32.867Z,0.60
2023-04-24T18:21:59.748Z,0.70
2023-04-24T18:24:29.233Z,0.77
2023-04-24T18:26:56.066Z,1.93
2023-04-24T18:29:23.061Z,1.17
2023-04-24T18:31:50.514Z,1.87
2023-04-24T18:34:17.393Z,0.60
2023-04-24T18:36:44.509Z,1.13
2023-04-24T18:39:11.246Z,0.70
2023-04-24T18:41:38.169Z,1.40
2023-04-24T18:44:05.272Z,3.00
2023-04-24T18:46:38.301Z,2.77
2023-04-24T18:49:05.571Z,3.10
2023-04-24T18:51:35.691Z,1.97
2023-04-24T18:54:07.415Z,2.47
2023-04-24T18:56:34.253Z,2.13
2023-04-24T18:59:01.108Z,2.10
2023-04-24T19:01:28.140Z,1.47
2023-04-24T19:03:59.560Z,1.17
2023-04-24T19:06:26.835Z,0.90
2023-04-24T19:08:53.730Z,1.30
2023-04-24T19:11:20.756Z,2.37
2023-04-24T19:13:47.568Z,2.40
2023-04-24T19:16:14.411Z,2.37
2023-04-24T19:18:41.576Z,1.50
2023-04-24T19:21:08.972Z,1.63
2023-04-24T19:23:39.647Z,0.90
2023-04-24T19:26:06.897Z,0.83
2023-04-24T19:28:33.802Z,0.80
2023-04-24T19:31:00.734Z,1.00
2023-04-24T19:33:28.110Z,1.10
2023-04-24T19:35:56.226Z,0.77
2023-04-24T19:38:23.113Z,0.53
2023-04-24T19:40:50.425Z,0.60
2023-04-24T19:43:17.790Z,0.80
2023-04-24T19:45:45.369Z,0.80
2023-04-24T19:48:12.231Z,0.87
2023-04-24T19:50:39.056Z,1.30
2023-04-24T19:53:08.670Z,0.93
2023-04-24T19:55:36.164Z,0.67
2023-04-24T19:58:03.025Z,0.50
2023-04-24T20:00:29.927Z,0.60
2023-04-24T20:02:57.065Z,0.70
2023-04-24T20:05:24.165Z,0.60
2023-04-24T20:07:51.544Z,0.80
2023-04-24T20:10:18.484Z,1.00
2023-04-24T20:12:47.372Z,0.80
2023-04-24T20:15:14.158Z,0.70
2023-04-24T20:17:41.248Z,1.13
2023-04-24T20:20:09.706Z,0.97
2023-04-24T20:22:39.832Z,1.00
2023-04-24T20:25:07.830Z,1.20
2023-04-24T20:27:35.624Z,0.80
2023-04-24T20:30:03.086Z,0.60
2023-04-24T20:32:29.890Z,0.70
2023-04-24T20:34:56.940Z,1.00
2023-04-24T20:37:24.864Z,0.90
2023-04-24T20:39:54.533Z,0.90
2023-04-24T20:42:22.489Z,0.60
2023-04-24T20:44:49.371Z,0.93
2023-04-24T20:47:16.269Z,0.87
2023-04-24T20:49:43.260Z,0.60
2023-04-24T20:52:10.115Z,0.80
2023-04-24T20:54:36.944Z,0.80
2023-04-24T20:57:04.176Z,1.10
2023-04-24T20:59:31.312Z,0.90
2023-04-24T21:01:58.185Z,0.80
2023-04-24T21:04:25.059Z,0.70
2023-04-24T21:06:52.027Z,0.80
2023-04-24T21:09:18.845Z,0.70
2023-04-24T21:11:46.160Z,0.60
2023-04-24T21:14:13.017Z,0.80
2023-04-24T21:16:40.013Z,1.37
2023-04-24T21:19:06.941Z,1.13
2023-04-24T21:21:34.135Z,0.83
2023-04-24T21:24:01.766Z,0.70
2023-04-24T21:26:28.625Z,0.60
2023-04-24T21:28:56.257Z,0.77
2023-04-24T21:31:23.155Z,0.90
2023-04-24T21:33:50.191Z,0.80
2023-04-24T21:36:17.467Z,0.77
2023-04-24T21:38:44.212Z,0.67
2023-04-24T21:41:12.060Z,0.60
2023-04-24T21:43:44.701Z,1.73
2023-04-24T21:46:11.821Z,0.90
2023-04-24T21:48:38.751Z,1.00
2023-04-24T21:51:05.548Z,1.07
2023-04-24T21:53:32.906Z,1.17
2023-04-24T21:55:59.720Z,1.03
2023-04-24T21:58:26.591Z,1.00
2023-04-24T22:00:53.385Z,1.47
2023-04-24T22:03:20.521Z,1.27
2023-04-24T22:05:47.650Z,1.77
2023-04-24T22:08:14.388Z,1.37
2023-04-24T22:10:41.488Z,1.27
2023-04-24T22:13:08.400Z,1.30
2023-04-24T22:15:35.388Z,1.17
2023-04-24T22:18:04.102Z,0.77
2023-04-24T22:20:34.670Z,1.00
2023-04-24T22:23:01.733Z,1.20
2023-04-24T22:25:28.549Z,0.90
2023-04-24T22:27:55.827Z,0.87
2023-04-24T22:30:22.784Z,0.90
2023-04-24T22:32:50.283Z,1.00
2023-04-24T22:35:17.268Z,0.80
2023-04-24T22:37:44.039Z,1.40
2023-04-24T22:40:11.282Z,0.80
2023-04-24T22:42:38.464Z,1.50
2023-04-24T22:45:08.101Z,1.10
2023-04-24T22:47:35.384Z,0.80
2023-04-24T22:50:04.021Z,1.10
2023-04-24T22:52:30.822Z,0.90
2023-04-24T22:54:58.829Z,0.90
2023-04-24T22:57:25.757Z,0.90
2023-04-24T22:59:54.241Z,0.83
2023-04-24T23:02:23.214Z,0.90
2023-04-24T23:04:50.079Z,0.77
2023-04-24T23:07:16.921Z,0.93
2023-04-24T23:09:44.227Z,1.07
2023-04-24T23:12:11.088Z,1.57
2023-04-24T23:14:38.409Z,0.73
2023-04-24T23:17:05.945Z,0.80
2023-04-24T23:19:33.844Z,0.90
2023-04-24T23:22:00.642Z,1.33
2023-04-24T23:24:27.583Z,1.07
2023-04-24T23:26:55.099Z,1.00
2023-04-24T23:29:23.280Z,1.37
2023-04-24T23:31:50.312Z,1.00
2023-04-24T23:34:18.840Z,1.00
2023-04-24T23:36:47.206Z,1.20
2023-04-24T23:39:14.091Z,1.50
2023-04-24T23:41:41.429Z,1.20
2023-04-24T23:44:08.249Z,1.00
2023-04-24T23:46:35.214Z,1.57
2023-04-24T23:49:02.200Z,1.03
2023-04-24T23:51:29.371Z,1.03
2023-04-24T23:53:56.175Z,1.13
2023-04-24T23:56:26.748Z,1.00
2023-04-24T23:58:54.113Z,0.80
